Flight Track Log - Related Links

Times and Time Zones

All times are in EDT time to prevent confusion due to time zone crossing. See the DAL6232 flight status page for this flight to view local times or setup timezone preferences in your user account.


Time Position Orientation Groundspeed Altitude Reporting Facility
EDT Latitude Longitude Course Direction KTS MPH feet Rate Location/Type
Mon 11:17:46 AM 40.7500 -73.8333 245° Southwest 124 143 2,000  Level New York TRACON
Mon 11:18:46 AM 40.7167 -73.8333 180° South 158 182 3,600 1,950 Climbing New York TRACON
Mon 11:19:46 AM 40.7167 -73.8833 270° West 251 289 5,900 2,200 Climbing New York TRACON
Mon 11:20:46 AM 40.7833 -73.9333 330° Northwest 300 345 8,000 2,300 Climbing New York TRACON
Mon 11:21:46 AM 40.8333 -74.0167 308° West 288 331 10,500 2,190 Climbing New York TRACON
Mon 11:22:52 AM 40.8333 -74.1333 270° West 293 337 12,600 1,750 Climbing New York TRACON
Mon 11:23:00 AM 40.7612 -74.6495 245° Southwest  Level Estimated
Mon 11:23:46 AM 40.8333 -74.2333 270° West 338 389 14,000  Level New York TRACON
Mon 11:24:52 AM 40.8333 -74.3833 270° West 345 397 16,000 1,364 Climbing New York TRACON
Mon 11:25:58 AM 40.8167 -74.5167 261° West 350 403 17,000 500 Climbing New York TRACON
Mon 11:26:52 AM 40.8167 -74.6333 270° West 351 404 17,000 159 Level New York TRACON
Mon 11:27:51 AM 40.8172 -74.7606 270° West 352 405 17,300 1,059 Climbing New York Center
Mon 11:28:51 AM 40.8128 -74.8892 267° West 352 405 19,100 1,600 Climbing New York Center
Mon 11:29:51 AM 40.8086 -75.0069 267° West 357 411 20,500 1,300 Climbing New York Center
Mon 11:30:51 AM 40.8017 -75.1408 266° West 362 417 21,700 1,200 Climbing New York Center
Mon 11:31:51 AM 40.7794 -75.2847 259° West 368 423 22,900 1,200 Climbing New York Center
Mon 11:32:51 AM 40.7517 -75.4142 254° West 368 423 24,100 1,200 Climbing New York Center
Mon 11:33:51 AM 40.7114 -75.5347 246° West 368 423 25,300 1,150 Climbing New York Center
Mon 11:34:51 AM 40.6647 -75.6572 243° Southwest 374 430 26,400 1,000 Climbing New York Center
Mon 11:35:51 AM 40.6225 -75.7692 244° Southwest 374 430 27,300 800 Climbing New York Center
Mon 11:36:51 AM 40.5756 -75.8914 243° Southwest 379 436 28,000 750 Climbing New York Center
Mon 11:37:51 AM 40.5172 -76.0319 241° Southwest 384 442 28,800 750 Climbing New York Center
Mon 11:38:51 AM 40.4697 -76.1592 244° Southwest 396 456 29,500 600 Climbing New York Center
Mon 11:39:51 AM 40.4200 -76.2889 243° Southwest 396 456 30,000 250 Climbing New York Center
Mon 11:40:51 AM 40.3772 -76.4000 243° Southwest 396 456 30,000  Level New York Center
Mon 11:41:51 AM 40.3275 -76.5267 243° Southwest 396 456 30,000  Level New York Center
Mon 11:42:51 AM 40.2936 -76.6625 252° West 396 456 30,000  Level New York Center
Mon 11:43:51 AM 40.2594 -76.8011 252° West 396 456 30,000  Level New York Center
Mon 11:44:51 AM 40.2256 -76.9369 252° West 396 456 30,000  Level New York Center
Mon 11:45:51 AM 40.1933 -77.0728 253° West 396 456 30,000  Level New York Center
Mon 11:46:51 AM 40.1589 -77.2081 252° West 396 456 30,000 -150 Level New York Center
Mon 11:47:51 AM 40.1236 -77.3542 253° West 396 456 29,700 -1,150 Descending New York Center
Mon 11:48:51 AM 40.0936 -77.4817 253° West 402 463 27,700 -2,128 Descending New York Center
Mon 11:50:43 AM 40.0283 -77.7372 252° West 374 430 23,600 -1,931 Descending Cleveland Center
Mon 11:51:45 AM 39.9972 -77.8564 251° West 353 406 22,100 -774 Descending Cleveland Center
Mon 11:52:47 AM 39.9731 -77.9783 256° West 351 404 22,000 -49 Descending Cleveland Center
Mon 11:53:48 AM 39.9792 -78.1122 273° West 369 425 22,000  Level Cleveland Center
Mon 11:54:50 AM 39.9983 -78.2494 280° West 385 443 22,000  Level Cleveland Center
Mon 11:55:52 AM 40.0178 -78.3847 281° West 364 419 22,000  Level Cleveland Center
Mon 11:56:53 AM 40.0356 -78.5131 280° West 360 414 22,000  Level Cleveland Center
Mon 11:57:55 AM 40.0542 -78.6453 280° West 368 423 22,000 -871 Level Cleveland Center
Mon 11:58:57 AM 40.0753 -78.8042 280° West 371 427 20,200 -1,645 Descending Cleveland Center
Mon 11:59:59 AM 40.0925 -78.9256 281° West 346 398 18,600 -1,512 Descending Cleveland Center
Mon 12:01:00 PM 40.1072 -79.0400 280° West 323 372 17,100 -1,463 Descending Cleveland Center
Mon 12:02:02 PM 40.1239 -79.1594 280° West 334 384 15,600 -1,452 Descending Cleveland Center
Mon 12:03:04 PM 40.1400 -79.2828 280° West 343 395 14,100 -1,512 Descending Cleveland Center
Mon 12:04:05 PM 40.1572 -79.4094 280° West 333 383 12,500 -1,463 Descending Cleveland Center
Mon 12:05:07 PM 40.1722 -79.5233 280° West 323 372 11,100 -1,161 Descending Cleveland Center
Mon 12:06:09 PM 40.1864 -79.6361 279° West 314 361 10,100 -585 Descending Cleveland Center
Mon 12:07:10 PM 40.2042 -79.7361 283° West 287 330 9,900 -829 Descending Cleveland Center
Mon 12:08:12 PM 40.2400 -79.8108 302° West 258 297 8,400 -1,597 Descending Cleveland Center
Mon 12:09:14 PM 40.3139 -79.8753 326° Northwest 268 308 6,600 -1,597 Descending Cleveland Center
Mon 12:10:16 PM 40.3783 -79.9317 326° Northwest 278 320 5,100 -1,171 Descending Cleveland Center
Mon 12:11:17 PM 40.4364 -79.9822 326° Northwest 262 302 4,200 -976 Descending Cleveland Center
Mon 12:12:19 PM 40.4742 -80.0403 311° West 222 255 3,100 -677 Descending Cleveland Center
Mon 12:13:21 PM 40.4819 -80.1006 280° West 174 200 2,800 -537 Descending Cleveland Center
Mon 12:14:22 PM 40.4833 -80.1589 272° West 145 167 2,000 -787 Descending Cleveland Center
Mon 12:16:00 PM 40.4833 -80.2167 303° West  Level FlightAware Approximate

Login

Don't have an account? Register now (free) for customized features, flight alerts, and more!